createdAt,value
2022-11-14T00:01:14.191Z,7.40
2022-11-14T00:03:42.134Z,7.10
2022-11-14T00:06:10.611Z,7.20
2022-11-14T00:08:38.666Z,7.50
2022-11-14T00:11:06.963Z,7.60
2022-11-14T00:13:34.894Z,7.60
2022-11-14T00:16:04.317Z,7.70
2022-11-14T00:18:32.550Z,7.90
2022-11-14T00:21:00.688Z,7.90
2022-11-14T00:23:28.645Z,7.90
2022-11-14T00:25:56.611Z,8.00
2022-11-14T00:28:24.561Z,8.10
2022-11-14T00:30:52.531Z,8.20
2022-11-14T00:33:22.155Z,8.20
2022-11-14T00:35:54.314Z,8.20
2022-11-14T00:38:22.606Z,8.10
2022-11-14T00:40:50.640Z,8.00
2022-11-14T00:43:18.826Z,7.70
2022-11-14T00:45:47.337Z,7.80
2022-11-14T00:48:15.623Z,8.00
2022-11-14T00:50:45.418Z,8.00
2022-11-14T00:53:13.826Z,8.20
2022-11-14T00:55:42.546Z,8.10
2022-11-14T00:58:10.525Z,7.90
2022-11-14T01:00:38.623Z,8.00
2022-11-14T01:03:06.640Z,8.00
2022-11-14T01:05:34.610Z,8.10
2022-11-14T01:08:03.977Z,7.90
2022-11-14T01:10:31.951Z,7.70
2022-11-14T01:12:59.923Z,7.60
2022-11-14T01:15:27.874Z,7.60
2022-11-14T01:17:55.825Z,7.50
2022-11-14T01:20:23.809Z,7.40
2022-11-14T01:22:51.762Z,7.40
2022-11-14T01:25:21.108Z,7.40
2022-11-14T01:27:49.069Z,7.50
2022-11-14T01:30:17.133Z,7.30
2022-11-14T01:32:45.130Z,7.30
2022-11-14T01:35:13.112Z,7.60
2022-11-14T01:37:41.463Z,7.80
2022-11-14T01:40:10.532Z,8.00
2022-11-14T01:42:39.865Z,8.10
2022-11-14T01:45:41.033Z,8.00
2022-11-14T01:48:21.528Z,8.10
2022-11-14T01:50:55.484Z,8.20
2022-11-14T01:53:23.799Z,8.20
2022-11-14T01:55:52.008Z,7.90
2022-11-14T01:58:22.414Z,7.90
2022-11-14T02:00:50.438Z,7.60
2022-11-14T02:03:19.214Z,7.30
2022-11-14T02:05:49.870Z,7.20
2022-11-14T02:08:18.933Z,7.40
2022-11-14T02:10:46.945Z,7.40
2022-11-14T02:13:15.007Z,7.30
2022-11-14T02:15:44.354Z,7.30
2022-11-14T02:18:12.414Z,7.40
2022-11-14T02:20:43.359Z,7.50
2022-11-14T02:23:12.770Z,7.50
2022-11-14T02:25:41.291Z,7.50
2022-11-14T02:28:11.706Z,7.50
2022-11-14T02:30:39.853Z,7.60
2022-11-14T02:33:11.690Z,7.50
2022-11-14T02:35:41.526Z,7.50
2022-11-14T02:38:09.618Z,7.50
2022-11-14T02:40:37.725Z,7.60
2022-11-14T02:43:05.806Z,7.80
2022-11-14T02:45:33.927Z,7.80
2022-11-14T02:48:01.941Z,7.70
2022-11-14T02:50:29.970Z,7.70
2022-11-14T02:52:59.283Z,7.80
2022-11-14T02:55:27.241Z,7.90
2022-11-14T02:57:55.211Z,7.60
2022-11-14T03:00:23.335Z,7.20
2022-11-14T03:02:51.265Z,6.90
2022-11-14T03:05:19.218Z,7.00
2022-11-14T03:07:47.161Z,7.20
2022-11-14T03:10:16.506Z,7.10
2022-11-14T03:12:44.474Z,7.30
2022-11-14T03:15:12.634Z,7.30
2022-11-14T03:17:40.570Z,6.80
2022-11-14T03:20:09.979Z,6.50
2022-11-14T03:22:37.959Z,6.60
2022-11-14T03:25:06.773Z,6.80
2022-11-14T03:27:36.125Z,7.00
2022-11-14T03:30:04.413Z,7.20
2022-11-14T03:32:32.380Z,7.20
2022-11-14T03:35:00.346Z,7.30
2022-11-14T03:37:28.351Z,7.40
2022-11-14T03:39:56.305Z,7.30
2022-11-14T03:42:24.568Z,7.20
2022-11-14T03:44:53.860Z,7.00
2022-11-14T03:47:22.413Z,7.20
2022-11-14T03:49:50.363Z,7.10
2022-11-14T03:52:18.322Z,6.70
2022-11-14T03:54:46.292Z,6.60
2022-11-14T03:57:14.248Z,6.50
2022-11-14T03:59:42.214Z,6.30
2022-11-14T04:02:11.531Z,6.50
2022-11-14T04:04:39.499Z,6.60
2022-11-14T04:07:07.514Z,6.60
2022-11-14T04:09:35.531Z,6.60
2022-11-14T04:12:03.477Z,6.70
2022-11-14T04:14:31.486Z,6.60
2022-11-14T04:16:59.405Z,6.50
2022-11-14T04:19:28.747Z,6.60
2022-11-14T04:21:56.718Z,6.50
2022-11-14T04:24:24.695Z,6.40
2022-11-14T04:26:52.657Z,6.30
2022-11-14T04:29:20.655Z,6.20
2022-11-14T04:31:48.629Z,6.30
2022-11-14T04:34:16.836Z,6.40
2022-11-14T04:36:46.284Z,6.50
2022-11-14T04:39:14.252Z,6.60
2022-11-14T04:41:42.233Z,6.70
2022-11-14T04:44:10.217Z,6.80
2022-11-14T04:46:38.160Z,6.50
2022-11-14T04:49:06.170Z,6.60
2022-11-14T04:51:34.143Z,6.70
2022-11-14T04:54:03.491Z,6.80
2022-11-14T04:56:31.426Z,6.80
2022-11-14T04:58:59.360Z,6.90
2022-11-14T05:01:27.369Z,6.70
2022-11-14T05:03:55.368Z,6.70
2022-11-14T05:06:23.334Z,6.60
2022-11-14T05:08:51.387Z,6.70
2022-11-14T05:11:25.335Z,6.60
2022-11-14T05:13:56.941Z,6.40
2022-11-14T05:16:25.240Z,6.40
2022-11-14T05:18:54.909Z,6.40
2022-11-14T05:21:22.912Z,6.50
2022-11-14T05:23:50.859Z,6.50
2022-11-14T05:26:20.783Z,6.40
2022-11-14T05:28:48.752Z,6.50
2022-11-14T05:31:17.963Z,6.70
2022-11-14T05:33:46.638Z,6.70
2022-11-14T05:36:16.177Z,6.50
2022-11-14T05:38:44.583Z,6.40
2022-11-14T05:41:14.411Z,6.30
2022-11-14T05:43:44.252Z,6.20
2022-11-14T05:46:14.844Z,6.20
2022-11-14T05:48:43.468Z,6.40
2022-11-14T05:51:13.313Z,6.40
2022-11-14T05:53:41.917Z,6.50
2022-11-14T05:56:12.813Z,6.40
2022-11-14T05:58:41.103Z,6.10
2022-11-14T06:01:12.569Z,6.10
2022-11-14T06:03:42.400Z,6.00
2022-11-14T06:06:12.178Z,6.00
2022-11-14T06:08:40.317Z,6.10
2022-11-14T06:11:10.386Z,6.00
2022-11-14T06:13:38.629Z,6.00
2022-11-14T06:16:09.330Z,6.10
2022-11-14T06:18:39.285Z,6.50
2022-11-14T06:21:09.493Z,6.60
2022-11-14T06:23:37.769Z,6.70
2022-11-14T06:26:08.396Z,6.90
2022-11-14T06:28:36.327Z,6.90
2022-11-14T06:31:05.651Z,6.90
2022-11-14T06:33:35.987Z,6.90
2022-11-14T06:36:07.024Z,6.80
2022-11-14T06:38:36.214Z,6.80
2022-11-14T06:41:05.184Z,6.90
2022-11-14T06:43:36.376Z,6.70
2022-11-14T06:46:05.156Z,6.80
2022-11-14T06:48:33.528Z,6.90
2022-11-14T06:51:02.438Z,7.00
2022-11-14T06:53:33.282Z,7.10
2022-11-14T06:56:03.175Z,7.10
2022-11-14T06:58:33.180Z,7.30
2022-11-14T07:01:05.968Z,7.40
2022-11-14T07:03:34.757Z,7.40
2022-11-14T07:06:03.536Z,7.50
2022-11-14T07:08:36.931Z,7.40
2022-11-14T07:11:06.594Z,7.50
2022-11-14T07:13:35.684Z,7.60
2022-11-14T07:16:04.368Z,7.50
2022-11-14T07:18:33.896Z,7.50
2022-11-14T07:21:04.286Z,7.30
2022-11-14T07:23:34.687Z,7.50
2022-11-14T07:26:04.571Z,7.60
2022-11-14T07:28:33.038Z,7.80
2022-11-14T07:31:03.672Z,7.90
2022-11-14T07:33:32.087Z,7.50
2022-11-14T07:36:00.109Z,7.70
2022-11-14T07:38:28.366Z,7.80
2022-11-14T07:41:00.242Z,7.70
2022-11-14T07:43:29.279Z,7.70
2022-11-14T07:46:00.355Z,7.70
2022-11-14T07:48:28.834Z,7.60
2022-11-14T07:50:59.873Z,7.60
2022-11-14T07:53:28.850Z,7.70
2022-11-14T07:55:58.505Z,7.80
2022-11-14T07:58:26.476Z,7.80
2022-11-14T08:00:54.485Z,7.90
2022-11-14T08:03:22.493Z,7.90
2022-11-14T08:05:50.453Z,7.80
2022-11-14T08:08:18.447Z,7.70
2022-11-14T08:10:46.479Z,7.90
2022-11-14T08:13:33.168Z,7.80
2022-11-14T08:16:10.766Z,7.70
2022-11-14T08:18:40.709Z,7.80
2022-11-14T08:21:08.993Z,8.20
2022-11-14T08:23:37.062Z,8.30
2022-11-14T08:26:05.075Z,8.20
2022-11-14T08:28:34.598Z,8.20
2022-11-14T08:31:03.453Z,8.00
2022-11-14T08:33:31.965Z,7.80
2022-11-14T08:36:02.244Z,7.90
2022-11-14T08:38:31.776Z,8.20
2022-11-14T08:41:00.348Z,8.20
2022-11-14T08:43:28.963Z,8.20
2022-11-14T08:46:01.997Z,8.20
2022-11-14T08:48:31.326Z,8.20
2022-11-14T08:51:03.363Z,8.30
2022-11-14T08:53:31.898Z,8.50
2022-11-14T08:55:59.845Z,8.50
2022-11-14T08:58:31.129Z,8.70
2022-11-14T09:01:06.189Z,8.80
2022-11-14T09:03:34.710Z,9.00
2022-11-14T09:06:03.540Z,9.20
2022-11-14T09:08:32.060Z,9.00
2022-11-14T09:11:05.195Z,8.80
2022-11-14T09:13:35.348Z,8.90
2022-11-14T09:16:04.845Z,8.60
2022-11-14T09:18:33.189Z,9.00
2022-11-14T09:21:02.247Z,9.20
2022-11-14T09:23:30.697Z,9.40
2022-11-14T09:25:59.059Z,9.50
2022-11-14T09:28:27.035Z,9.70
2022-11-14T09:30:55.061Z,9.70
2022-11-14T09:33:24.356Z,9.70
2022-11-14T09:35:58.191Z,9.60
2022-11-14T09:38:26.226Z,9.20
2022-11-14T09:41:05.383Z,8.90
2022-11-14T09:43:46.191Z,9.20
2022-11-14T09:46:21.154Z,9.00
2022-11-14T09:48:52.348Z,9.00
2022-11-14T09:51:22.614Z,9.20
2022-11-14T09:53:55.795Z,9.50
2022-11-14T09:56:26.392Z,9.50
2022-11-14T09:58:56.521Z,9.30
2022-11-14T10:01:33.637Z,9.20
2022-11-14T10:04:10.934Z,9.30
2022-11-14T10:06:47.894Z,8.80
2022-11-14T10:09:37.567Z,9.20
2022-11-14T10:12:11.411Z,9.50
2022-11-14T10:15:03.396Z,9.80
2022-11-14T10:17:51.855Z,10.10
2022-11-14T10:20:29.664Z,10.20
2022-11-14T10:23:16.399Z,10.40
2022-11-14T10:25:54.400Z,10.50
2022-11-14T10:28:41.815Z,10.20
2022-11-14T10:31:20.803Z,10.20
2022-11-14T10:33:58.261Z,10.20
2022-11-14T10:36:46.734Z,10.10
2022-11-14T10:39:21.133Z,10.20
2022-11-14T10:41:59.810Z,10.30
2022-11-14T10:44:36.662Z,10.20
2022-11-14T10:47:08.312Z,10.00
2022-11-14T10:49:38.598Z,10.10
2022-11-14T10:52:14.022Z,10.10
2022-11-14T10:54:46.949Z,10.20
2022-11-14T10:57:19.775Z,10.40
2022-11-14T10:59:48.557Z,10.30
2022-11-14T11:02:16.908Z,10.00
2022-11-14T11:04:46.389Z,9.80
2022-11-14T11:07:44.812Z,9.70
2022-11-14T11:10:40.355Z,9.20
2022-11-14T11:13:12.345Z,9.10
2022-11-14T11:15:42.429Z,9.10
2022-11-14T11:18:27.042Z,9.10
2022-11-14T11:21:10.038Z,9.40
2022-11-14T11:23:50.307Z,9.90
2022-11-14T11:26:21.802Z,10.00
2022-11-14T11:29:08.943Z,10.10
2022-11-14T11:31:54.006Z,10.10
2022-11-14T11:34:26.372Z,10.20
2022-11-14T11:37:00.330Z,10.40
2022-11-14T11:39:32.584Z,10.50
2022-11-14T11:42:10.046Z,10.70
2022-11-14T11:44:45.028Z,10.90
2022-11-14T11:47:16.476Z,10.90
2022-11-14T11:49:52.971Z,10.50
2022-11-14T11:52:31.352Z,10.50
2022-11-14T11:55:06.179Z,10.50
2022-11-14T11:57:37.899Z,10.10
2022-11-14T12:00:14.671Z,9.90
2022-11-14T12:02:50.010Z,10.10
2022-11-14T12:05:24.333Z,10.10
2022-11-14T12:07:59.577Z,9.90
2022-11-14T12:10:33.207Z,10.00
2022-11-14T12:13:52.818Z,10.10
2022-11-14T12:16:41.192Z,10.00
2022-11-14T12:19:35.548Z,10.20
2022-11-14T12:22:17.156Z,10.40
2022-11-14T12:25:02.886Z,10.40
2022-11-14T12:27:49.795Z,10.40
2022-11-14T12:30:21.788Z,10.50
2022-11-14T12:32:53.438Z,10.40
2022-11-14T12:35:25.913Z,10.30
2022-11-14T12:37:57.382Z,10.30
2022-11-14T12:40:29.910Z,10.00
2022-11-14T12:43:00.959Z,10.20
2022-11-14T12:45:58.655Z,10.30
2022-11-14T12:48:34.797Z,10.20
2022-11-14T12:51:04.150Z,10.30
2022-11-14T12:53:45.394Z,10.10
2022-11-14T12:56:38.375Z,9.80
2022-11-14T12:59:27.599Z,9.60
2022-11-14T13:02:22.363Z,9.50
2022-11-14T13:05:04.056Z,9.40
2022-11-14T13:07:47.139Z,9.20
2022-11-14T13:10:16.954Z,9.40
2022-11-14T13:13:16.651Z,9.50
2022-11-14T13:16:09.903Z,9.50
2022-11-14T13:19:08.141Z,9.40
2022-11-14T13:21:48.199Z,9.60
2022-11-14T13:24:17.716Z,9.60
2022-11-14T13:26:51.214Z,9.60
2022-11-14T13:29:58.783Z,9.60
2022-11-14T13:33:06.087Z,9.40
2022-11-14T13:35:45.140Z,9.30
2022-11-14T13:38:34.482Z,9.30
2022-11-14T13:41:20.208Z,9.20
2022-11-14T13:44:18.961Z,9.20
2022-11-14T13:47:03.979Z,9.10
2022-11-14T13:49:48.666Z,9.20
2022-11-14T13:52:18.583Z,9.40
2022-11-14T13:54:48.704Z,9.30
2022-11-14T13:57:25.068Z,9.10
2022-11-14T14:00:01.185Z,9.00
2022-11-14T14:02:49.866Z,9.00
2022-11-14T14:05:28.670Z,9.00
2022-11-14T14:08:17.934Z,8.90
2022-11-14T14:10:58.285Z,8.80
2022-11-14T14:13:40.925Z,9.00
2022-11-14T14:16:16.517Z,8.80
2022-11-14T14:18:56.920Z,8.90
2022-11-14T14:21:40.772Z,8.80
2022-11-14T14:24:18.909Z,8.70
2022-11-14T14:27:01.734Z,8.60
2022-11-14T14:29:42.020Z,8.60
2022-11-14T14:32:14.143Z,8.50
2022-11-14T14:34:42.487Z,8.50
2022-11-14T14:37:19.278Z,8.50
2022-11-14T14:40:02.516Z,8.40
2022-11-14T14:42:38.042Z,8.30
2022-11-14T14:45:15.001Z,8.20
2022-11-14T14:47:45.135Z,8.10
2022-11-14T14:50:18.613Z,8.10
2022-11-14T14:52:46.878Z,7.90
2022-11-14T14:55:25.002Z,8.00
2022-11-14T14:57:52.969Z,7.90
2022-11-14T15:00:26.003Z,7.70
2022-11-14T15:02:56.287Z,7.60
2022-11-14T15:05:25.486Z,7.60
2022-11-14T15:07:56.241Z,7.50
2022-11-14T15:10:29.605Z,7.50
2022-11-14T15:12:58.571Z,7.60
2022-11-14T15:15:28.656Z,7.60
2022-11-14T15:17:58.685Z,7.70
2022-11-14T15:20:28.474Z,7.80
2022-11-14T15:23:06.999Z,7.60
2022-11-14T15:25:36.464Z,7.50
2022-11-14T15:28:07.458Z,7.40
2022-11-14T15:30:37.692Z,7.40
2022-11-14T15:33:25.961Z,7.40
2022-11-14T15:36:07.854Z,7.30
2022-11-14T15:38:54.042Z,7.20
2022-11-14T15:41:25.287Z,7.20
2022-11-14T15:43:55.187Z,7.20
2022-11-14T15:46:47.175Z,7.20
2022-11-14T15:49:22.268Z,7.20
2022-11-14T15:51:53.267Z,7.20
2022-11-14T15:54:29.618Z,7.30
2022-11-14T15:57:00.731Z,7.20
2022-11-14T15:59:31.152Z,7.10
2022-11-14T16:02:03.193Z,7.20
2022-11-14T16:04:34.828Z,7.20
2022-11-14T16:07:02.832Z,7.20
2022-11-14T16:09:30.919Z,7.10
2022-11-14T16:12:00.266Z,7.10
2022-11-14T16:14:28.206Z,7.10
2022-11-14T16:16:56.199Z,7.00
2022-11-14T16:19:24.155Z,7.10
2022-11-14T16:21:52.120Z,7.00
2022-11-14T16:24:21.648Z,7.20
2022-11-14T16:26:50.550Z,7.10
2022-11-14T16:29:19.886Z,7.30
2022-11-14T16:31:48.570Z,7.30
2022-11-14T16:34:19.227Z,7.40
2022-11-14T16:36:48.641Z,7.40
2022-11-14T16:39:16.802Z,7.30
2022-11-14T16:41:44.868Z,7.50
2022-11-14T16:44:17.350Z,7.60
2022-11-14T16:46:47.367Z,7.70
2022-11-14T16:49:16.500Z,7.60
2022-11-14T16:51:47.854Z,7.50
2022-11-14T16:54:16.990Z,7.40
2022-11-14T16:56:44.973Z,7.10
2022-11-14T16:59:13.413Z,7.10
2022-11-14T17:01:41.478Z,7.30
2022-11-14T17:04:10.859Z,7.20
2022-11-14T17:06:38.827Z,7.10
2022-11-14T17:09:06.803Z,7.10
2022-11-14T17:11:34.792Z,7.00
2022-11-14T17:14:02.761Z,6.90
2022-11-14T17:16:30.713Z,6.80
2022-11-14T17:18:58.650Z,6.70
2022-11-14T17:21:28.465Z,6.70
2022-11-14T17:23:57.170Z,6.70
2022-11-14T17:26:25.262Z,6.60
2022-11-14T17:28:53.475Z,6.70
2022-11-14T17:31:21.574Z,6.80
2022-11-14T17:33:53.238Z,6.80
2022-11-14T17:36:21.355Z,6.70
2022-11-14T17:38:50.706Z,6.80
2022-11-14T17:41:19.031Z,6.90
2022-11-14T17:43:47.003Z,6.80
2022-11-14T17:46:16.331Z,6.70
2022-11-14T17:48:44.791Z,6.70
2022-11-14T17:51:14.227Z,6.70
2022-11-14T17:53:43.033Z,6.70
2022-11-14T17:56:14.986Z,6.50
2022-11-14T17:58:43.639Z,6.60
2022-11-14T18:01:12.524Z,6.90
2022-11-14T18:03:40.519Z,6.90
2022-11-14T18:06:09.662Z,6.80
2022-11-14T18:08:38.296Z,6.80
2022-11-14T18:11:07.844Z,6.70
2022-11-14T18:13:37.213Z,6.60
2022-11-14T18:16:07.355Z,6.70
2022-11-14T18:18:37.091Z,6.90
2022-11-14T18:21:08.964Z,7.00
2022-11-14T18:23:38.645Z,7.20
2022-11-14T18:26:11.058Z,7.20
2022-11-14T18:28:40.671Z,7.10
2022-11-14T18:31:10.919Z,7.10
2022-11-14T18:33:39.990Z,7.10
2022-11-14T18:36:12.001Z,7.30
2022-11-14T18:38:40.174Z,7.50
2022-11-14T18:41:10.063Z,7.60
2022-11-14T18:43:38.023Z,7.60
2022-11-14T18:46:09.185Z,7.60
2022-11-14T18:48:40.406Z,7.50
2022-11-14T18:51:11.225Z,7.60
2022-11-14T18:53:39.235Z,7.50
2022-11-14T18:56:08.459Z,7.30
2022-11-14T18:58:39.680Z,7.10
2022-11-14T19:01:14.207Z,7.10
2022-11-14T19:03:42.213Z,6.90
2022-11-14T19:06:11.713Z,6.90
2022-11-14T19:08:39.693Z,7.00
2022-11-14T19:11:09.447Z,7.00
2022-11-14T19:13:37.415Z,7.00
2022-11-14T19:16:06.605Z,6.90
2022-11-14T19:18:35.884Z,7.00
2022-11-14T19:21:06.120Z,7.00
2022-11-14T19:23:34.803Z,7.00
2022-11-14T19:26:03.564Z,6.90
2022-11-14T19:28:31.791Z,6.90
2022-11-14T19:31:03.315Z,7.00
2022-11-14T19:33:31.990Z,7.00
2022-11-14T19:36:06.729Z,7.10
2022-11-14T19:38:34.916Z,7.40
2022-11-14T19:41:08.101Z,7.60
2022-11-14T19:43:37.978Z,7.60
2022-11-14T19:46:07.640Z,7.40
2022-11-14T19:48:36.498Z,7.20
2022-11-14T19:51:07.313Z,7.10
2022-11-14T19:53:36.420Z,7.10
2022-11-14T19:56:06.512Z,7.40
2022-11-14T19:58:37.202Z,7.50
2022-11-14T20:01:06.854Z,7.50
2022-11-14T20:03:35.019Z,7.40
2022-11-14T20:06:03.533Z,7.40
2022-11-14T20:08:32.858Z,7.20
2022-11-14T20:11:02.328Z,7.30
2022-11-14T20:13:31.754Z,7.30
2022-11-14T20:16:00.169Z,7.20
2022-11-14T20:18:31.238Z,7.10
2022-11-14T20:21:03.920Z,6.90
2022-11-14T20:23:34.556Z,7.00
2022-11-14T20:26:05.887Z,6.90
2022-11-14T20:28:36.629Z,7.10
2022-11-14T20:31:06.609Z,7.10
2022-11-14T20:33:38.236Z,7.10
2022-11-14T20:36:08.757Z,7.10
2022-11-14T20:38:38.160Z,7.20
2022-11-14T20:41:06.718Z,7.30
2022-11-14T20:43:34.967Z,6.90
2022-11-14T20:46:05.035Z,7.10
2022-11-14T20:48:34.877Z,7.20
2022-11-14T20:51:04.484Z,7.20
2022-11-14T20:53:33.444Z,7.10
2022-11-14T20:56:04.059Z,7.10
2022-11-14T20:58:32.833Z,7.30
2022-11-14T21:01:01.020Z,7.50
2022-11-14T21:03:29.476Z,7.50
2022-11-14T21:05:57.738Z,7.40
2022-11-14T21:08:25.695Z,7.10
2022-11-14T21:11:03.574Z,7.10
2022-11-14T21:13:49.194Z,7.00
2022-11-14T21:16:19.300Z,7.10
2022-11-14T21:18:48.271Z,7.20
2022-11-14T21:21:18.429Z,7.10
2022-11-14T21:23:47.591Z,7.20
2022-11-14T21:26:18.348Z,7.40
2022-11-14T21:28:47.950Z,7.50
2022-11-14T21:31:17.614Z,7.40
2022-11-14T21:33:46.216Z,7.00
2022-11-14T21:36:43.200Z,7.20
2022-11-14T21:39:04.137Z,7.30
2022-11-14T21:41:34.222Z,7.40
2022-11-14T21:44:03.955Z,7.50
2022-11-14T21:46:31.933Z,7.50
2022-11-14T21:48:59.890Z,7.60
2022-11-14T21:51:29.790Z,7.50
2022-11-14T21:53:59.399Z,7.50
2022-11-14T21:56:29.329Z,7.50
2022-11-14T21:59:14.037Z,7.50
2022-11-14T22:02:01.440Z,7.50
2022-11-14T22:04:29.745Z,7.70
2022-11-14T22:06:58.027Z,7.50
2022-11-14T22:09:27.556Z,7.60
2022-11-14T22:11:55.920Z,7.20
2022-11-14T22:14:25.303Z,7.20
2022-11-14T22:16:53.248Z,7.30
2022-11-14T22:19:21.653Z,7.40
2022-11-14T22:21:49.601Z,7.50
2022-11-14T22:24:17.541Z,7.60
2022-11-14T22:26:45.517Z,7.40
2022-11-14T22:29:13.487Z,7.50
2022-11-14T22:31:42.858Z,7.70
2022-11-14T22:34:12.209Z,7.90
2022-11-14T22:36:40.229Z,8.10
2022-11-14T22:39:08.173Z,8.00
2022-11-14T22:41:36.412Z,7.70
2022-11-14T22:44:04.416Z,7.70
2022-11-14T22:46:32.503Z,7.80
2022-11-14T22:49:03.802Z,7.80
2022-11-14T22:51:31.877Z,7.80
2022-11-14T22:54:00.173Z,7.80
2022-11-14T22:56:30.176Z,7.80
2022-11-14T22:59:00.313Z,7.50
2022-11-14T23:01:31.260Z,7.60
2022-11-14T23:04:02.813Z,7.70
2022-11-14T23:06:32.330Z,7.70
2022-11-14T23:09:02.030Z,7.80
2022-11-14T23:11:32.285Z,7.70
2022-11-14T23:14:01.606Z,7.50
2022-11-14T23:16:31.318Z,7.50
2022-11-14T23:19:03.265Z,7.50
2022-11-14T23:21:33.230Z,7.70
2022-11-14T23:24:02.459Z,7.70
2022-11-14T23:26:32.769Z,8.00
2022-11-14T23:29:01.118Z,8.10
2022-11-14T23:31:29.460Z,8.00
2022-11-14T23:33:58.845Z,8.20
2022-11-14T23:36:28.166Z,8.20
2022-11-14T23:38:56.431Z,8.10
2022-11-14T23:41:26.718Z,8.10
2022-11-14T23:43:54.700Z,8.10
2022-11-14T23:46:23.059Z,8.20
2022-11-14T23:48:53.289Z,8.30
2022-11-14T23:51:21.358Z,8.10
2022-11-14T23:53:51.941Z,8.10
2022-11-14T23:56:19.898Z,8.10
2022-11-14T23:58:47.908Z,8.20
